createdAt,value
2018-07-21T00:00:23.189Z,87.20
2018-07-21T00:02:51.941Z,89.40
2018-07-21T00:05:20.491Z,90.80
2018-07-21T00:07:49.125Z,91.20
2018-07-21T00:10:18.325Z,91.80
2018-07-21T00:12:46.886Z,92.60
2018-07-21T00:15:15.437Z,93.70
2018-07-21T00:17:43.973Z,94.40
2018-07-21T00:20:12.509Z,94.80
2018-07-21T00:22:41.037Z,96.00
2018-07-21T00:25:10.337Z,96.30
2018-07-21T00:27:39.954Z,97.20
2018-07-21T00:30:09.885Z,97.70
2018-07-21T00:32:39.109Z,98.40
2018-07-21T00:35:10.279Z,98.60
2018-07-21T00:37:38.837Z,98.60
2018-07-21T00:40:07.384Z,98.90
2018-07-21T00:42:35.927Z,99.90
2018-07-21T00:45:04.773Z,99.90
2018-07-21T00:47:33.323Z,99.90
2018-07-21T00:50:02.756Z,99.90
2018-07-21T00:52:31.306Z,99.90
2018-07-21T00:54:59.842Z,99.90
2018-07-21T00:57:28.363Z,99.90
2018-07-21T00:59:56.998Z,99.90
2018-07-21T01:02:25.530Z,99.90
2018-07-21T01:04:54.049Z,99.90
2018-07-21T01:07:23.597Z,99.90
2018-07-21T01:09:52.758Z,99.90
2018-07-21T01:12:21.273Z,99.90
2018-07-21T01:14:53.701Z,99.90
2018-07-21T01:17:24.384Z,99.90
2018-07-21T01:25:16.505Z,99.90
2018-07-21T01:27:45.393Z,99.90
2018-07-21T01:30:15.296Z,99.90
2018-07-21T01:32:46.326Z,99.90
2018-07-21T01:35:17.161Z,99.90
2018-07-21T01:37:45.740Z,99.90
2018-07-21T01:40:25.714Z,99.90
2018-07-21T01:43:04.116Z,99.90
2018-07-21T01:45:36.018Z,99.90
2018-07-21T01:48:11.946Z,99.90
2018-07-21T01:50:42.731Z,99.90
2018-07-21T01:53:16.621Z,99.90
2018-07-21T01:55:47.713Z,99.90
2018-07-21T01:58:20.810Z,99.90
2018-07-21T02:00:55.365Z,99.90
2018-07-21T02:03:23.974Z,99.90
2018-07-21T02:05:52.536Z,99.90
2018-07-21T02:08:22.454Z,99.90
2018-07-21T02:10:54.111Z,99.90
2018-07-21T02:13:23.551Z,99.90
2018-07-21T02:15:52.727Z,99.90
2018-07-21T02:18:21.409Z,99.90
2018-07-21T02:20:49.952Z,99.90
2018-07-21T02:23:18.621Z,99.90
2018-07-21T02:25:48.093Z,99.90
2018-07-21T02:28:16.649Z,99.90
2018-07-21T02:30:48.599Z,99.90
2018-07-21T02:33:20.133Z,99.90
2018-07-21T02:35:50.438Z,99.90
2018-07-21T02:38:20.432Z,99.90
2018-07-21T02:40:49.170Z,99.90
2018-07-21T02:43:23.864Z,99.90
2018-07-21T02:45:52.453Z,99.90
2018-07-21T02:48:20.982Z,99.90
2018-07-21T02:50:49.623Z,99.90
2018-07-21T02:53:18.189Z,99.90
2018-07-21T02:55:47.415Z,99.90
2018-07-21T02:58:16.205Z,99.90
2018-07-21T03:00:44.750Z,99.90
2018-07-21T03:03:13.257Z,99.90
2018-07-21T03:05:41.822Z,99.90
2018-07-21T03:08:10.426Z,99.90
2018-07-21T03:10:39.774Z,99.90
2018-07-21T03:13:08.349Z,99.90
2018-07-21T03:15:36.857Z,99.90
2018-07-21T03:18:05.410Z,99.90
2018-07-21T03:20:33.929Z,99.90
2018-07-21T03:23:02.497Z,99.90
2018-07-21T03:25:31.731Z,99.90
2018-07-21T03:28:00.293Z,99.90
2018-07-21T03:30:28.843Z,99.90
2018-07-21T03:32:57.462Z,99.90
2018-07-21T03:35:25.972Z,99.90
2018-07-21T03:37:54.514Z,99.90
2018-07-21T03:40:23.727Z,99.90
2018-07-21T03:42:52.266Z,99.90
2018-07-21T03:45:20.869Z,99.90
2018-07-21T03:47:50.054Z,99.90
2018-07-21T03:50:19.634Z,99.90
2018-07-21T03:52:48.462Z,99.90
2018-07-21T03:55:17.006Z,99.90
2018-07-21T03:57:45.793Z,99.90
2018-07-21T04:00:15.167Z,99.90
2018-07-21T04:02:44.653Z,99.90
2018-07-21T04:05:13.919Z,99.90
2018-07-21T04:07:42.500Z,99.90
2018-07-21T04:10:11.038Z,99.90
2018-07-21T04:12:39.566Z,99.90
2018-07-21T04:15:15.604Z,99.90
2018-07-21T04:17:46.036Z,99.90
2018-07-21T04:20:19.712Z,99.90
2018-07-21T04:22:50.405Z,99.90
2018-07-21T04:25:32.442Z,99.90
2018-07-21T04:28:13.701Z,99.90
2018-07-21T04:30:56.199Z,99.90
2018-07-21T04:33:30.717Z,99.90
2018-07-21T04:36:01.450Z,99.90
2018-07-21T04:41:06.401Z,99.90
2018-07-21T04:43:41.992Z,99.90
2018-07-21T04:46:15.964Z,99.90
2018-07-21T04:48:46.656Z,99.90
2018-07-21T04:51:32.518Z,99.90
2018-07-21T04:54:10.900Z,99.90
2018-07-21T04:56:50.493Z,99.90
2018-07-21T04:59:20.497Z,99.90
2018-07-21T05:01:51.467Z,99.90
2018-07-21T05:04:21.106Z,99.90
2018-07-21T05:06:50.521Z,99.90
2018-07-21T05:09:24.652Z,99.90
2018-07-21T05:11:54.753Z,99.90
2018-07-21T05:14:30.258Z,99.90
2018-07-21T05:17:02.287Z,99.90
2018-07-21T05:19:38.462Z,99.90
2018-07-21T05:22:14.848Z,99.90
2018-07-21T05:24:50.112Z,99.90
2018-07-21T05:27:24.080Z,99.90
2018-07-21T05:29:53.708Z,99.90
2018-07-21T05:32:32.016Z,99.90
2018-07-21T05:35:17.384Z,99.90
2018-07-21T05:37:54.999Z,99.90
2018-07-21T05:40:23.561Z,99.90
2018-07-21T05:43:02.969Z,99.90
2018-07-21T05:45:43.549Z,99.90
2018-07-21T05:48:19.173Z,99.90
2018-07-21T05:50:53.975Z,99.90
2018-07-21T05:53:26.916Z,99.90
2018-07-21T05:55:59.861Z,99.90
2018-07-21T05:58:42.265Z,99.90
2018-07-21T06:01:12.870Z,99.90
2018-07-21T06:03:41.933Z,99.90
2018-07-21T06:06:11.556Z,99.90
2018-07-21T06:08:40.447Z,99.90
2018-07-21T06:11:12.561Z,99.90
2018-07-21T06:13:50.679Z,99.90
2018-07-21T06:16:21.307Z,99.90
2018-07-21T06:18:50.561Z,99.90
2018-07-21T06:21:19.132Z,99.90
2018-07-21T06:23:47.673Z,99.90
2018-07-21T06:26:16.241Z,99.90
2018-07-21T06:28:45.339Z,99.90
2018-07-21T06:31:14.431Z,99.90
2018-07-21T06:33:42.988Z,99.90
2018-07-21T06:36:11.902Z,99.90
2018-07-21T06:38:40.424Z,99.90
2018-07-21T06:41:09.377Z,99.90
2018-07-21T06:43:38.046Z,99.90
2018-07-21T06:46:06.682Z,99.90
2018-07-21T06:48:35.185Z,99.90
2018-07-21T06:51:03.714Z,99.90
2018-07-21T06:53:32.264Z,99.90
2018-07-21T06:56:00.834Z,99.90
2018-07-21T06:58:29.706Z,99.90
2018-07-21T07:00:58.209Z,99.90
2018-07-21T07:03:26.729Z,99.90
2018-07-21T07:05:55.317Z,99.90
2018-07-21T07:08:31.257Z,99.90
2018-07-21T07:10:59.841Z,99.90
2018-07-21T07:13:28.369Z,99.90
2018-07-21T07:15:58.757Z,99.90
2018-07-21T07:18:28.852Z,99.90
2018-07-21T07:21:00.722Z,99.90
2018-07-21T07:23:31.450Z,99.90
2018-07-21T07:25:59.966Z,99.90
2018-07-21T07:28:32.597Z,99.90
2018-07-21T07:31:01.134Z,99.90
2018-07-21T07:33:30.108Z,99.90
2018-07-21T07:36:03.254Z,99.90
2018-07-21T07:38:31.781Z,99.90
2018-07-21T07:41:00.303Z,99.70
2018-07-21T07:43:30.665Z,98.90
2018-07-21T07:45:59.309Z,97.90
2018-07-21T07:48:29.185Z,95.80
2018-07-21T07:50:58.376Z,95.60
2018-07-21T07:53:27.751Z,95.50
2018-07-21T07:55:56.364Z,96.10
2018-07-21T07:58:24.910Z,94.70
2018-07-21T08:00:53.460Z,94.40
2018-07-21T08:03:22.010Z,94.40
2018-07-21T08:05:50.613Z,92.00
2018-07-21T08:08:20.521Z,92.10
2018-07-21T08:10:51.709Z,92.30
2018-07-21T08:13:32.790Z,92.50
2018-07-21T08:16:13.779Z,92.30
2018-07-21T08:18:46.761Z,90.30
2018-07-21T08:21:26.539Z,88.80
2018-07-21T08:23:55.190Z,90.90
2018-07-21T08:26:24.097Z,91.40
2018-07-21T08:28:53.617Z,90.30
2018-07-21T08:31:29.295Z,87.10
2018-07-21T08:34:06.213Z,88.20
2018-07-21T08:36:39.290Z,90.00
2018-07-21T08:39:09.320Z,90.60
2018-07-21T08:41:37.839Z,88.20
2018-07-21T08:44:09.358Z,90.10
2018-07-21T08:46:39.459Z,89.00
2018-07-21T08:49:07.957Z,87.80
2018-07-21T08:51:48.136Z,86.40
2018-07-21T08:54:19.671Z,86.20
2018-07-21T08:56:59.807Z,86.70
2018-07-21T08:59:28.289Z,84.00
2018-07-21T09:01:57.753Z,79.90
2018-07-21T09:04:28.001Z,80.30
2018-07-21T09:06:57.206Z,84.40
2018-07-21T09:09:25.708Z,83.00
2018-07-21T09:11:54.249Z,81.90
2018-07-21T09:14:22.857Z,79.30
2018-07-21T09:16:52.047Z,79.60
2018-07-21T09:19:20.862Z,78.40
2018-07-21T09:21:49.397Z,77.60
2018-07-21T09:24:18.015Z,74.90
2018-07-21T09:26:46.756Z,74.80
2018-07-21T09:29:15.688Z,74.00
2018-07-21T09:31:44.226Z,75.40
2018-07-21T09:34:12.779Z,76.20
2018-07-21T09:36:41.453Z,73.50
2018-07-21T09:39:11.253Z,72.80
2018-07-21T09:41:40.776Z,71.30
2018-07-21T09:44:10.215Z,72.10
2018-07-21T09:46:38.935Z,68.70
2018-07-21T09:49:07.554Z,69.50
2018-07-21T09:51:36.946Z,68.30
2018-07-21T09:54:06.119Z,71.50
2018-07-21T09:56:35.593Z,70.80
2018-07-21T09:59:05.576Z,70.50
2018-07-21T10:01:34.335Z,70.60
2018-07-21T10:04:03.481Z,70.70
2018-07-21T10:06:32.999Z,71.70
2018-07-21T10:09:02.496Z,71.40
2018-07-21T10:11:31.896Z,69.80
2018-07-21T10:14:14.592Z,68.30
2018-07-21T10:16:43.197Z,68.60
2018-07-21T10:19:15.984Z,69.50
2018-07-21T10:21:47.846Z,68.70
2018-07-21T10:25:23.996Z,67.00
2018-07-21T10:28:10.426Z,66.00
2018-07-21T10:30:39.099Z,66.00
2018-07-21T10:33:07.669Z,65.20
2018-07-21T10:35:36.249Z,63.40
2018-07-21T10:38:06.357Z,62.20
2018-07-21T10:40:35.843Z,61.50
2018-07-21T10:43:04.483Z,62.40
2018-07-21T10:45:38.834Z,61.40
2018-07-21T10:48:07.544Z,62.30
2018-07-21T10:50:36.133Z,64.10
2018-07-21T10:53:04.777Z,62.50
2018-07-21T10:55:33.409Z,63.00
2018-07-21T10:58:01.961Z,62.60
2018-07-21T11:00:31.459Z,60.00
2018-07-21T11:03:00.049Z,60.00
2018-07-21T11:05:28.902Z,58.30
2018-07-21T11:07:57.617Z,59.30
2018-07-21T11:10:26.258Z,59.20
2018-07-21T11:12:54.876Z,60.60
2018-07-21T11:15:23.519Z,61.90
2018-07-21T11:17:52.039Z,59.80
2018-07-21T11:20:21.450Z,58.60
2018-07-21T11:22:50.036Z,59.20
2018-07-21T11:25:18.726Z,57.50
2018-07-21T11:27:47.521Z,56.80
2018-07-21T11:30:19.774Z,57.60
2018-07-21T11:32:49.063Z,56.70
2018-07-21T11:35:17.724Z,55.50
2018-07-21T11:37:46.318Z,55.00
2018-07-21T11:40:14.889Z,55.10
2018-07-21T11:42:44.276Z,54.10
2018-07-21T11:45:14.437Z,54.30
2018-07-21T11:47:42.964Z,53.50
2018-07-21T11:50:11.520Z,53.00
2018-07-21T11:52:40.111Z,54.20
2018-07-21T11:55:08.642Z,53.60
2018-07-21T11:57:37.184Z,52.20
2018-07-21T12:00:05.761Z,52.50
2018-07-21T12:02:35.777Z,51.90
2018-07-21T12:05:05.399Z,50.90
2018-07-21T12:07:33.969Z,50.60
2018-07-21T12:10:03.171Z,48.40
2018-07-21T12:12:31.710Z,49.70
2018-07-21T12:15:01.002Z,49.60
2018-07-21T12:17:29.619Z,49.50
2018-07-21T12:19:58.153Z,50.10
2018-07-21T12:22:47.903Z,49.20
2018-07-21T12:25:28.817Z,48.30
2018-07-21T12:27:57.489Z,48.80
2018-07-21T12:30:31.602Z,47.60
2018-07-21T12:33:03.799Z,47.90
2018-07-21T12:35:43.363Z,47.90
2018-07-21T12:38:19.805Z,48.40
2018-07-21T12:40:54.427Z,48.60
2018-07-21T12:43:27.442Z,48.40
2018-07-21T12:45:56.258Z,48.50
2018-07-21T12:48:30.154Z,48.10
2018-07-21T12:50:59.941Z,47.60
2018-07-21T12:53:29.963Z,46.60
2018-07-21T12:55:59.076Z,47.00
2018-07-21T12:58:29.070Z,47.50
2018-07-21T13:01:12.093Z,47.70
2018-07-21T13:03:48.190Z,47.90
2018-07-21T13:06:20.136Z,49.90
2018-07-21T13:08:54.107Z,50.20
2018-07-21T13:14:05.805Z,48.90
2018-07-21T13:16:36.519Z,49.50
2018-07-21T13:19:05.314Z,49.40
2018-07-21T13:21:36.141Z,49.20
2018-07-21T13:24:08.305Z,49.20
2018-07-21T13:26:38.030Z,50.80
2018-07-21T13:29:12.125Z,50.70
2018-07-21T13:31:41.695Z,50.40
2018-07-21T13:34:20.295Z,50.90
2018-07-21T13:36:54.825Z,52.10
2018-07-21T13:39:37.750Z,52.70
2018-07-21T13:42:11.712Z,51.40
2018-07-21T13:44:47.911Z,51.30
2018-07-21T13:47:19.411Z,51.10
2018-07-21T13:49:50.162Z,50.40
2018-07-21T13:52:38.108Z,50.60
2018-07-21T13:55:08.486Z,51.20
2018-07-21T13:57:41.105Z,50.70
2018-07-21T14:00:17.399Z,51.50
2018-07-21T14:02:56.850Z,50.20
2018-07-21T14:05:36.739Z,50.50
2018-07-21T14:08:14.004Z,50.00
2018-07-21T14:10:43.049Z,50.80
2018-07-21T14:13:13.101Z,50.60
2018-07-21T14:15:44.874Z,49.20
2018-07-21T14:18:15.168Z,49.10
2018-07-21T14:20:49.613Z,49.70
2018-07-21T14:23:25.740Z,49.00
2018-07-21T14:25:58.054Z,49.50
2018-07-21T14:28:31.129Z,50.00
2018-07-21T14:31:01.709Z,50.00
2018-07-21T14:33:31.989Z,50.80
2018-07-21T14:36:05.366Z,52.50
2018-07-21T14:38:34.521Z,52.30
2018-07-21T14:41:03.041Z,52.00
2018-07-21T14:43:31.589Z,52.00
2018-07-21T14:46:01.001Z,52.70
2018-07-21T14:48:29.577Z,53.80
2018-07-21T14:50:58.441Z,54.70
2018-07-21T14:53:28.119Z,55.20
2018-07-21T14:55:57.765Z,54.80
2018-07-21T14:58:26.919Z,54.60
2018-07-21T15:00:55.473Z,55.70
2018-07-21T15:03:24.027Z,55.90
2018-07-21T15:05:52.861Z,56.00
2018-07-21T15:08:22.105Z,56.60
2018-07-21T15:10:50.617Z,57.50
2018-07-21T15:13:19.982Z,57.50
2018-07-21T15:15:49.358Z,57.70
2018-07-21T15:18:18.989Z,58.10
2018-07-21T15:20:48.356Z,56.30
2018-07-21T15:23:16.868Z,56.50
2018-07-21T15:25:46.213Z,57.50
2018-07-21T15:28:14.765Z,57.50
2018-07-21T15:30:43.374Z,57.50
2018-07-21T15:33:12.473Z,58.10
2018-07-21T15:35:41.441Z,59.20
2018-07-21T15:38:10.401Z,59.00
2018-07-21T15:40:39.044Z,58.50
2018-07-21T15:43:07.593Z,58.30
2018-07-21T15:45:37.479Z,57.60
2018-07-21T15:48:06.001Z,58.50
2018-07-21T15:50:35.686Z,57.80
2018-07-21T15:53:04.230Z,57.40
2018-07-21T15:55:33.517Z,58.50
2018-07-21T15:58:02.629Z,59.60
2018-07-21T16:00:31.267Z,59.30
2018-07-21T16:02:59.782Z,58.80
2018-07-21T16:05:28.335Z,58.60
2018-07-21T16:07:56.849Z,58.50
2018-07-21T16:10:25.357Z,58.80
2018-07-21T16:12:54.428Z,58.90
2018-07-21T16:15:23.090Z,59.30
2018-07-21T16:17:51.583Z,58.90
2018-07-21T16:20:20.101Z,59.30
2018-07-21T16:22:48.651Z,58.30
2018-07-21T16:25:18.102Z,57.50
2018-07-21T16:27:47.966Z,56.40
2018-07-21T16:30:17.057Z,56.70
2018-07-21T16:32:45.653Z,57.30
2018-07-21T16:35:14.200Z,57.10
2018-07-21T16:37:42.704Z,57.40
2018-07-21T16:40:11.263Z,57.00
2018-07-21T16:42:39.769Z,57.60
2018-07-21T16:45:08.307Z,56.90
2018-07-21T16:47:36.849Z,57.30
2018-07-21T16:50:05.410Z,54.80
2018-07-21T16:52:33.946Z,55.30
2018-07-21T16:55:02.561Z,55.90
2018-07-21T16:57:32.865Z,56.00
2018-07-21T17:00:02.189Z,56.40
2018-07-21T17:02:31.490Z,57.30
2018-07-21T17:05:00.181Z,57.80
2018-07-21T17:07:29.547Z,58.90
2018-07-21T17:09:58.889Z,58.70
2018-07-21T17:12:28.037Z,58.90
2018-07-21T17:14:56.667Z,58.90
2018-07-21T17:17:25.208Z,58.80
2018-07-21T17:19:53.724Z,58.10
2018-07-21T17:22:22.294Z,57.70
2018-07-21T17:24:50.836Z,57.30
2018-07-21T17:27:20.594Z,57.20
2018-07-21T17:29:49.178Z,57.20
2018-07-21T17:32:17.680Z,57.60
2018-07-21T17:34:46.272Z,57.40
2018-07-21T17:37:15.361Z,56.10
2018-07-21T17:39:44.500Z,55.20
2018-07-21T17:42:13.917Z,55.10
2018-07-21T17:44:43.787Z,54.30
2018-07-21T17:47:19.551Z,54.90
2018-07-21T17:49:49.371Z,55.30
2018-07-21T17:52:25.657Z,54.90
2018-07-21T17:55:05.473Z,54.60
2018-07-21T17:57:36.471Z,56.30
2018-07-21T18:00:05.686Z,55.90
2018-07-21T18:02:35.063Z,56.40
2018-07-21T18:05:03.858Z,57.10
2018-07-21T18:07:32.396Z,56.90
2018-07-21T18:10:00.911Z,57.40
2018-07-21T18:12:29.426Z,57.80
2018-07-21T18:15:06.798Z,57.60
2018-07-21T18:17:35.311Z,58.20
2018-07-21T18:22:52.212Z,58.70
2018-07-21T18:25:20.806Z,57.90
2018-07-21T18:27:50.430Z,58.50
2018-07-21T18:30:25.586Z,59.50
2018-07-21T18:35:36.567Z,59.70
2018-07-21T18:38:05.299Z,59.00
2018-07-21T18:40:33.836Z,59.40
2018-07-21T18:43:03.464Z,58.90
2018-07-21T18:45:31.988Z,59.30
2018-07-21T18:48:00.513Z,59.00
2018-07-21T18:50:30.845Z,58.80
2018-07-21T18:52:59.361Z,59.50
2018-07-21T18:55:28.017Z,59.40
2018-07-21T18:57:56.598Z,60.40
2018-07-21T19:00:25.141Z,60.60
2018-07-21T19:02:53.722Z,60.70
2018-07-21T19:05:23.581Z,60.40
2018-07-21T19:07:52.719Z,61.10
2018-07-21T19:10:21.294Z,60.00
2018-07-21T19:12:50.511Z,59.40
2018-07-21T19:17:25.417Z,58.90
2018-07-21T19:19:59.266Z,58.40
2018-07-21T19:22:27.817Z,57.40
2018-07-21T19:24:57.592Z,56.90
2018-07-21T19:27:34.517Z,56.40
2018-07-21T19:30:08.932Z,55.80
2018-07-21T19:32:54.392Z,56.70
2018-07-21T19:35:32.031Z,56.70
2018-07-21T19:38:02.744Z,57.60
2018-07-21T19:40:31.308Z,56.50
2018-07-21T19:43:06.451Z,56.70
2018-07-21T19:45:40.254Z,56.60
2018-07-21T19:48:16.029Z,57.20
2018-07-21T19:50:45.049Z,57.40
2018-07-21T19:53:16.950Z,57.40
2018-07-21T19:56:09.494Z,58.30
2018-07-21T19:58:49.639Z,58.30
2018-07-21T20:01:21.635Z,58.70
2018-07-21T20:06:35.325Z,59.70
2018-07-21T20:09:08.877Z,59.60
2018-07-21T20:11:43.608Z,59.80
2018-07-21T20:14:13.301Z,60.40
2018-07-21T20:16:43.801Z,60.80
2018-07-21T20:19:12.411Z,62.40
2018-07-21T20:21:41.854Z,62.50
2018-07-21T20:24:13.047Z,61.20
2018-07-21T20:26:43.461Z,63.20
2018-07-21T20:29:12.766Z,61.70
2018-07-21T20:31:41.265Z,62.10
2018-07-21T20:34:11.851Z,62.00
2018-07-21T20:36:58.781Z,64.00
2018-07-21T20:39:31.247Z,63.50
2018-07-21T20:42:05.993Z,65.00
2018-07-21T20:44:37.185Z,64.50
2018-07-21T20:47:11.327Z,64.50
2018-07-21T20:49:45.194Z,64.80
2018-07-21T20:52:20.961Z,65.60
2018-07-21T20:57:30.671Z,66.90
2018-07-21T21:00:00.086Z,67.00
2018-07-21T21:05:32.842Z,67.50
2018-07-21T21:08:02.278Z,67.70
2018-07-21T21:10:31.730Z,68.50
2018-07-21T21:13:19.905Z,68.60
2018-07-21T21:15:51.301Z,68.60
2018-07-21T21:18:19.845Z,68.40
2018-07-21T21:20:48.394Z,70.30
2018-07-21T21:23:22.977Z,69.60
2018-07-21T21:25:51.509Z,70.70
2018-07-21T21:28:23.525Z,71.20
2018-07-21T21:30:52.057Z,72.10
2018-07-21T21:33:20.612Z,72.50
2018-07-21T21:35:50.840Z,72.70
2018-07-21T21:38:24.161Z,73.90
2018-07-21T21:40:58.063Z,74.00
2018-07-21T21:43:26.631Z,73.60
2018-07-21T21:45:55.932Z,74.90
2018-07-21T21:48:24.584Z,74.40
2018-07-21T21:50:53.114Z,75.20
2018-07-21T21:53:22.471Z,75.70
2018-07-21T21:55:52.028Z,76.60
2018-07-21T21:58:20.885Z,76.60
2018-07-21T22:01:09.093Z,76.60
2018-07-21T22:03:39.600Z,76.50
2018-07-21T22:06:08.137Z,77.40
2018-07-21T22:08:36.665Z,77.40
2018-07-21T22:11:05.410Z,78.20
2018-07-21T22:13:33.954Z,78.20
2018-07-21T22:16:02.499Z,78.80
2018-07-21T22:18:32.412Z,79.50
2018-07-21T22:21:00.970Z,80.00
2018-07-21T22:23:29.509Z,81.10
2018-07-21T22:25:58.028Z,82.40
2018-07-21T22:28:26.532Z,82.90
2018-07-21T22:30:55.110Z,84.00
2018-07-21T22:33:23.655Z,84.30
2018-07-21T22:35:52.215Z,85.10
2018-07-21T22:38:21.802Z,85.60
2018-07-21T22:40:50.313Z,86.80
2018-07-21T22:43:18.901Z,87.80
2018-07-21T22:45:47.420Z,88.40
2018-07-21T22:48:15.969Z,89.20
2018-07-21T22:50:44.603Z,90.60
2018-07-21T22:53:13.118Z,90.50
2018-07-21T22:55:41.651Z,91.00
2018-07-21T22:58:10.184Z,91.50
2018-07-21T23:00:38.752Z,91.80
2018-07-21T23:03:07.664Z,92.40
2018-07-21T23:05:37.471Z,92.80
2018-07-21T23:08:06.358Z,93.20
2018-07-21T23:10:34.869Z,93.80
2018-07-21T23:13:03.449Z,94.20
2018-07-21T23:15:31.995Z,95.10
2018-07-21T23:18:00.547Z,95.50
2018-07-21T23:20:30.296Z,96.10
2018-07-21T23:22:58.850Z,96.10
2018-07-21T23:25:27.388Z,97.40
2018-07-21T23:27:55.937Z,97.40
2018-07-21T23:30:24.488Z,98.00
2018-07-21T23:32:52.978Z,98.60
2018-07-21T23:35:21.510Z,98.30
2018-07-21T23:37:50.040Z,99.30
2018-07-21T23:40:18.585Z,99.50
2018-07-21T23:42:47.097Z,99.90
2018-07-21T23:45:15.636Z,99.90
2018-07-21T23:47:44.197Z,99.90
2018-07-21T23:50:12.737Z,99.90
2018-07-21T23:52:41.265Z,99.90
2018-07-21T23:55:10.521Z,99.90
2018-07-21T23:57:39.242Z,99.90
